Time;durP1;ratioP1;P1;durP2;ratioP2;P2;SDS_P1;SDS_P2;PMS_P1;PMS_P2;Temp;Humidity;BMP_temperature;BMP_pressure;BME280_temperature;BME280_humidity;BME280_pressure;Samples;Min_cycle;Max_cycle;Signal;HPM_P1;HPM_P2
2024/04/02 00:01:08;;;;;;;3.80;0.80;;;8.90;81.30;;;8.06;83.70;96814.03;5043345;28;21436;-70
2024/04/02 00:03:35;;;;;;;1.20;1.10;;;8.90;81.20;;;8.10;83.39;96819.75;5043556;28;20481;-71
2024/04/02 00:06:02;;;;;;;0.80;0.73;;;8.90;81.20;;;8.20;82.96;96820.03;5038528;28;20469;-71
2024/04/02 00:08:30;;;;;;;1.67;1.20;;;9.00;80.90;;;8.07;82.77;96830.97;5057129;28;20489;-71
2024/04/02 00:11:01;;;;;;;1.23;0.90;;;9.10;80.80;;;8.17;82.57;96844.69;5044321;28;20480;-71
2024/04/02 00:13:30;;;;;;;2.00;1.00;;;9.10;80.70;;;8.21;82.23;96843.19;5039054;28;21396;-72
2024/04/02 00:15:56;;;;;;;0.70;0.70;;;9.00;80.60;;;8.20;82.20;96835.34;5046693;28;20535;-73
2024/04/02 00:18:24;;;;;;;0.70;0.70;;;9.10;80.70;;;8.20;81.61;96854.19;5046672;28;20480;-71
2024/04/02 00:20:51;;;;;;;1.23;1.00;;;9.10;80.50;;;8.25;81.39;96848.09;5044430;28;20942;-70
2024/04/02 00:23:18;;;;;;;1.00;0.80;;;9.10;80.30;;;8.30;81.35;96845.56;5034012;28;20504;-70
2024/04/02 00:25:45;;;;;;;1.50;1.40;;;9.10;80.30;;;8.31;81.11;96848.00;5046608;28;20488;-70
2024/04/02 00:28:13;;;;;;;0.90;0.70;;;9.20;80.20;;;8.25;81.73;96848.09;5046978;28;20488;-70
2024/04/02 00:30:40;;;;;;;1.30;0.90;;;9.10;80.20;;;8.33;80.73;96842.41;5046750;28;20470;-73
2024/04/02 00:33:07;;;;;;;0.80;0.80;;;9.10;80.20;;;8.26;81.47;96849.75;5046378;28;20472;-70
2024/04/02 00:35:33;;;;;;;1.03;0.80;;;9.20;80.40;;;8.27;81.51;96844.13;5045722;28;20473;-69
2024/04/02 00:38:01;;;;;;;1.10;1.00;;;9.20;80.40;;;8.31;81.41;96852.59;5041560;28;20474;-70
2024/04/02 00:40:27;;;;;;;0.80;0.60;;;9.20;80.20;;;8.30;81.43;96850.94;5042467;28;20952;-70
2024/04/02 00:42:54;;;;;;;0.73;0.70;;;9.20;80.20;;;8.33;81.13;96853.16;5046346;28;20477;-71
2024/04/02 00:45:21;;;;;;;0.90;0.90;;;9.10;80.30;;;8.23;81.24;96859.91;5044794;28;20488;-71
2024/04/02 00:47:49;;;;;;;1.00;0.80;;;9.10;80.00;;;8.08;82.11;96854.13;5042158;28;20480;-71
2024/04/02 00:50:15;;;;;;;0.67;0.67;;;9.00;80.20;;;8.00;82.07;96865.22;5046983;28;20476;-70
2024/04/02 00:52:43;;;;;;;1.07;0.77;;;8.90;80.50;;;7.91;82.54;96868.22;5061539;28;20478;-73
2024/04/02 00:55:09;;;;;;;0.67;0.67;;;8.80;80.70;;;7.75;83.10;96874.22;5041587;28;20512;-71
2024/04/02 00:57:36;;;;;;;1.17;0.73;;;8.70;80.80;;;7.80;83.16;96874.34;5047999;28;20529;-70
2024/04/02 01:00:04;;;;;;;1.60;0.67;;;8.60;81.10;;;7.71;83.44;96881.91;5046961;28;20543;-73
2024/04/02 01:02:31;;;;;;;0.83;0.70;;;8.60;81.20;;;7.79;83.63;96892.34;5040367;28;20473;-71
2024/04/02 01:04:59;;;;;;;1.63;0.80;;;8.50;81.50;;;7.71;83.64;96883.78;5040679;28;20473;-71
2024/04/02 01:07:27;;;;;;;1.13;0.70;;;8.50;81.40;;;7.59;84.39;96892.59;5045087;28;20480;-70
2024/04/02 01:09:53;;;;;;;2.60;0.80;;;8.50;81.60;;;7.61;84.53;96885.09;5045507;28;20524;-70
2024/04/02 01:12:20;;;;;;;0.90;0.83;;;8.40;81.70;;;7.67;84.79;96887.97;5044683;28;20667;-70
2024/04/02 01:14:46;;;;;;;1.27;1.00;;;8.50;82.00;;;7.72;83.96;96896.16;5044166;28;20481;-71
2024/04/02 01:17:16;;;;;;;0.70;0.63;;;8.50;81.70;;;7.74;84.01;96894.91;5049881;28;20489;-70
2024/04/02 01:19:42;;;;;;;1.23;0.70;;;8.60;81.80;;;7.84;83.96;96898.91;5044244;28;20556;-70
2024/04/02 01:22:10;;;;;;;1.67;0.90;;;8.70;81.60;;;7.87;83.03;96906.53;5046640;28;20492;-70
2024/04/02 01:24:37;;;;;;;0.73;0.70;;;8.70;81.20;;;7.87;82.72;96912.75;5049801;28;20476;-70
2024/04/02 01:27:05;;;;;;;1.57;0.60;;;8.70;81.10;;;7.96;82.35;96912.44;5045764;28;21036;-71
2024/04/02 01:29:31;;;;;;;0.93;0.80;;;8.80;81.10;;;7.99;81.58;96912.00;5046096;28;20546;-71
2024/04/02 01:31:58;;;;;;;1.03;0.80;;;8.80;80.80;;;7.88;82.49;96925.16;5042071;28;20488;-71
2024/04/02 01:34:24;;;;;;;0.60;0.60;;;8.80;80.90;;;7.87;82.95;96926.19;5043771;28;20473;-72
2024/04/02 01:36:52;;;;;;;1.30;0.87;;;8.70;80.90;;;7.41;83.43;96863.81;5043889;28;20524;-70
2024/04/02 01:39:18;;;;;;;4.77;0.73;;;8.60;81.10;;;7.87;82.87;96928.88;5043360;28;20513;-71
2024/04/02 01:41:45;;;;;;;1.73;0.87;;;8.60;81.30;;;7.60;83.27;96937.22;5040746;28;20481;-69
2024/04/02 01:44:13;;;;;;;1.07;0.97;;;8.50;81.40;;;7.53;84.19;96936.50;5048362;28;20530;-72
2024/04/02 01:46:40;;;;;;;2.40;0.70;;;8.40;81.60;;;7.55;84.20;96939.78;5040515;28;20480;-71
2024/04/02 01:49:06;;;;;;;1.17;0.67;;;8.40;81.80;;;7.63;83.91;96954.78;5044337;28;20531;-70
2024/04/02 01:51:33;;;;;;;1.10;0.90;;;8.50;81.70;;;7.62;83.48;96956.66;5035419;28;20558;-70
2024/04/02 01:53:59;;;;;;;1.20;0.70;;;8.50;81.60;;;7.64;83.44;96957.25;5044398;28;20982;-69
2024/04/02 01:56:26;;;;;;;0.97;0.83;;;8.50;81.50;;;7.73;83.60;96951.59;5050383;28;20992;-70
2024/04/02 01:58:53;;;;;;;1.07;0.70;;;8.60;81.40;;;7.76;82.45;96959.19;5040861;28;20476;-70
2024/04/02 02:01:21;;;;;;;0.70;0.70;;;8.60;81.10;;;7.83;81.91;96959.97;5044841;28;20477;-71
2024/04/02 02:03:47;;;;;;;1.60;0.83;;;8.60;81.00;;;7.68;83.06;96967.56;5035361;28;21083;-70
2024/04/02 02:06:15;;;;;;;2.60;0.80;;;8.60;80.90;;;7.61;82.86;96970.34;5045685;28;21039;-70
2024/04/02 02:08:41;;;;;;;1.00;0.70;;;8.50;80.90;;;7.48;83.94;96973.94;5036505;28;20982;-70
2024/04/02 02:11:08;;;;;;;2.67;0.73;;;8.40;81.30;;;7.40;83.79;96969.69;5045626;28;20830;-70
2024/04/02 02:13:35;;;;;;;0.93;0.70;;;8.30;81.50;;;7.35;83.95;96978.44;5043875;28;20559;-72
2024/04/02 02:16:03;;;;;;;1.30;0.60;;;8.20;81.50;;;7.29;84.82;96975.78;5045517;28;20467;-72
2024/04/02 02:18:33;;;;;;;0.80;0.77;;;8.10;81.80;;;7.29;84.54;96971.22;5043604;28;20481;-71
2024/04/02 02:20:59;;;;;;;0.80;0.60;;;8.10;81.90;;;7.21;85.05;96983.06;5044339;28;20469;-69
2024/04/02 02:23:27;;;;;;;1.67;0.63;;;8.00;82.00;;;7.12;85.55;96972.81;5032067;28;20488;-69
2024/04/02 02:25:56;;;;;;;0.70;0.70;;;7.90;82.60;;;7.24;85.06;96987.19;5044752;28;20565;-69
2024/04/02 02:28:23;;;;;;;1.30;0.90;;;7.90;82.70;;;7.28;84.72;96991.06;5041606;28;20623;-71
2024/04/02 02:30:49;;;;;;;1.23;0.80;;;8.00;82.80;;;7.34;84.65;96992.88;5034753;28;20480;-70
2024/04/02 02:33:16;;;;;;;0.80;0.80;;;8.00;82.70;;;7.46;84.17;97001.06;5047600;28;20987;-71
2024/04/02 02:35:52;;;;;;;1.00;0.90;;;8.10;82.70;;;7.34;84.39;97000.94;5036306;28;20982;-71
2024/04/02 02:38:19;;;;;;;1.80;0.70;;;8.20;82.30;;;7.35;84.47;96994.56;5039359;28;20485;-70
2024/04/02 02:40:45;;;;;;;1.80;0.60;;;8.20;82.30;;;7.31;84.28;97003.25;5041817;28;20486;-72
2024/04/02 02:43:12;;;;;;;2.43;0.83;;;8.20;82.00;;;7.33;84.77;97006.53;5046823;28;20480;-71
2024/04/02 02:45:49;;;;;;;1.27;0.60;;;8.20;82.10;;;7.23;84.34;97015.09;5035634;28;20518;-70
2024/04/02 02:48:17;;;;;;;1.53;0.93;;;8.10;82.10;;;7.22;85.20;97019.63;5052022;28;20483;-70
2024/04/02 02:50:44;;;;;;;1.67;1.27;;;8.10;82.30;;;7.16;85.26;97017.00;5045473;28;20474;-71
2024/04/02 02:53:12;;;;;;;1.40;1.03;;;8.00;82.30;;;7.22;84.76;97021.53;5039626;28;20487;-69
2024/04/02 02:55:39;;;;;;;3.17;1.63;;;8.10;82.30;;;7.18;84.94;97022.97;5035168;28;20469;-69
2024/04/02 02:58:06;;;;;;;1.47;1.20;;;8.00;82.30;;;7.10;85.62;97018.69;5041421;28;20485;-70
2024/04/02 03:00:32;;;;;;;1.67;1.57;;;7.90;82.50;;;6.97;86.07;97030.34;5040743;28;20480;-70
2024/04/02 03:02:59;;;;;;;0.73;0.73;;;7.80;82.60;;;7.01;85.82;97030.75;5048165;28;20584;-71
2024/04/02 03:05:26;;;;;;;1.00;0.90;;;7.80;83.10;;;6.88;86.74;97026.28;5043287;28;20837;-73
2024/04/02 03:07:54;;;;;;;0.80;0.80;;;7.70;82.90;;;6.87;86.83;97030.00;5039617;28;20477;-71
2024/04/02 03:10:21;;;;;;;1.00;0.90;;;7.60;83.40;;;6.86;86.73;97039.94;5045158;28;20492;-70
2024/04/02 03:12:51;;;;;;;1.43;1.00;;;7.60;83.60;;;6.69;87.50;97044.97;5043813;28;20968;-71
2024/04/02 03:15:17;;;;;;;1.37;1.03;;;7.50;83.60;;;6.51;88.42;97038.44;5044018;28;20873;-72
2024/04/02 03:17:44;;;;;;;2.10;0.90;;;7.40;84.00;;;6.56;88.66;97050.41;5043706;28;20616;-72
2024/04/02 03:20:11;;;;;;;1.33;0.80;;;7.30;84.60;;;6.66;88.38;97050.78;5037926;28;20982;-71
2024/04/02 03:22:38;;;;;;;2.53;0.87;;;7.40;84.80;;;6.64;87.92;97045.59;5039342;28;20822;-70
2024/04/02 03:25:06;;;;;;;1.13;0.97;;;7.40;84.60;;;6.55;88.35;97049.59;5044360;28;20477;-70
2024/04/02 03:27:33;;;;;;;0.60;0.60;;;7.40;84.50;;;6.37;89.14;97061.84;5045610;28;20477;-71
2024/04/02 03:29:59;;;;;;;1.90;0.77;;;7.20;84.70;;;6.40;89.79;97057.88;5041835;28;20485;-70
2024/04/02 03:32:26;;;;;;;1.73;0.90;;;7.20;85.70;;;6.60;88.62;97062.38;5039091;28;20521;-70
2024/04/02 03:34:52;;;;;;;2.00;1.20;;;7.30;85.70;;;6.56;89.01;97066.50;5050934;28;20493;-70
2024/04/02 03:37:20;;;;;;;1.13;0.93;;;7.40;85.50;;;6.75;88.40;97072.81;5033936;28;20485;-70
2024/04/02 03:39:47;;;;;;;1.60;0.93;;;7.40;85.60;;;6.90;87.22;97062.63;5032094;28;20555;-71
2024/04/02 03:42:16;;;;;;;1.93;0.87;;;7.60;85.40;;;6.97;86.86;97073.31;5040485;28;20469;-71
2024/04/02 03:44:43;;;;;;;0.83;0.80;;;7.60;85.00;;;7.04;86.10;97078.66;5044670;28;20550;-70
2024/04/02 03:47:09;;;;;;;2.30;0.80;;;7.80;84.30;;;7.02;86.67;97070.00;5050463;28;20880;-71
2024/04/02 03:49:36;;;;;;;1.20;0.80;;;7.80;84.20;;;6.99;86.44;97065.88;5045844;28;20491;-69
2024/04/02 03:52:03;;;;;;;3.03;0.97;;;7.90;83.90;;;7.07;86.20;97073.69;5041176;28;20465;-72
2024/04/02 03:54:30;;;;;;;0.73;0.63;;;7.90;83.80;;;7.16;85.24;97081.47;5043543;28;20490;-70
2024/04/02 03:56:57;;;;;;;2.50;0.83;;;8.10;83.30;;;7.36;84.57;97084.88;5043630;28;20491;-70
2024/04/02 03:59:24;;;;;;;2.80;0.60;;;8.20;83.10;;;7.31;84.04;97071.25;5048199;28;20550;-71
2024/04/02 04:01:52;;;;;;;0.90;0.67;;;8.20;82.50;;;7.51;82.97;97081.84;5043056;28;20489;-71
2024/04/02 04:04:18;;;;;;;1.27;0.70;;;8.30;82.40;;;7.58;82.70;97079.13;5043733;28;21022;-71
2024/04/02 04:06:46;;;;;;;6.03;0.80;;;8.40;82.20;;;7.63;82.26;97081.97;5046725;28;20583;-70
2024/04/02 04:09:12;;;;;;;6.00;0.80;;;8.50;81.90;;;7.72;82.15;97079.00;5048093;28;21060;-72
2024/04/02 04:11:40;;;;;;;1.10;0.73;;;8.50;81.60;;;7.62;82.21;97085.69;5048201;28;20484;-71
2024/04/02 04:14:06;;;;;;;1.20;0.70;;;8.50;81.50;;;7.67;82.06;97084.22;5047097;28;20488;-71
2024/04/02 04:16:35;;;;;;;3.63;0.97;;;8.50;81.40;;;7.81;81.53;97093.84;5042936;28;20487;-71
2024/04/02 04:19:01;;;;;;;0.73;0.60;;;8.50;81.30;;;7.86;80.99;97096.66;5047261;28;20477;-72
2024/04/02 04:21:28;;;;;;;1.23;0.77;;;8.50;81.30;;;7.96;80.38;97098.03;5047923;28;20481;-71
2024/04/02 04:23:54;;;;;;;0.77;0.70;;;8.60;81.40;;;7.89;81.09;97090.03;5046371;28;20497;-72
2024/04/02 04:26:21;;;;;;;0.83;0.60;;;8.60;81.30;;;7.98;79.57;97098.66;5031416;28;20482;-70
2024/04/02 04:28:48;;;;;;;1.70;0.87;;;8.60;81.20;;;8.02;80.00;97100.66;5039260;28;20517;-70
2024/04/02 04:31:15;;;;;;;1.00;0.90;;;8.70;81.10;;;7.94;80.17;97104.44;5040496;28;20518;-72
2024/04/02 04:33:43;;;;;;;1.33;0.77;;;8.60;81.20;;;7.97;80.28;97097.81;5044237;28;20481;-72
2024/04/02 04:36:10;;;;;;;2.73;0.90;;;8.60;81.30;;;7.93;80.06;97100.09;5047584;28;20601;-71
2024/04/02 04:38:37;;;;;;;1.40;0.80;;;8.60;81.30;;;7.81;81.40;97107.28;5039527;28;21212;-71
2024/04/02 04:41:03;;;;;;;0.67;0.50;;;8.50;81.30;;;7.82;81.25;97116.16;5041330;28;20547;-71
2024/04/02 04:43:31;;;;;;;1.40;1.07;;;8.40;81.40;;;7.73;81.18;97105.66;5041745;28;20473;-69
2024/04/02 04:46:00;;;;;;;1.17;0.83;;;8.50;81.50;;;7.42;80.92;97060.84;5033250;28;20840;-70
2024/04/02 04:48:27;;;;;;;1.57;0.70;;;8.50;81.40;;;7.86;80.88;97123.56;5035770;28;20501;-72
2024/04/02 04:50:56;;;;;;;5.00;0.97;;;8.50;81.50;;;7.99;80.25;97121.81;5047268;28;20542;-72
2024/04/02 04:53:24;;;;;;;0.87;0.80;;;8.60;81.40;;;7.99;80.05;97125.31;5043229;28;20552;-70
2024/04/02 04:55:50;;;;;;;2.70;1.03;;;8.60;81.10;;;7.96;80.48;97119.53;5044918;28;20487;-71
2024/04/02 04:58:17;;;;;;;1.13;0.70;;;8.60;81.20;;;7.88;80.21;97117.94;5049748;28;20904;-70
2024/04/02 05:00:44;;;;;;;1.30;0.90;;;8.70;81.10;;;8.05;79.96;97126.28;5043519;28;20492;-71
2024/04/02 05:03:11;;;;;;;2.20;0.90;;;8.70;81.30;;;8.03;80.22;97128.38;5044010;28;20476;-71
2024/04/02 05:05:38;;;;;;;1.40;0.90;;;8.60;81.20;;;8.05;79.93;97128.97;5045946;28;20473;-71
2024/04/02 05:08:26;;;;;;;1.73;0.70;;;8.70;81.00;;;7.96;80.12;97141.06;5037060;28;20487;-70
2024/04/02 05:10:53;;;;;;;0.93;0.90;;;8.70;81.00;;;8.07;80.31;97135.81;5040450;28;20472;-70
2024/04/02 05:13:21;;;;;;;1.07;0.97;;;8.70;81.30;;;8.21;80.55;97135.69;5039290;28;20584;-71
2024/04/02 05:15:48;;;;;;;1.13;0.97;;;8.80;81.50;;;8.13;79.50;97136.78;5042001;28;20541;-70
2024/04/02 05:18:15;;;;;;;1.63;0.90;;;8.80;81.00;;;8.17;79.73;97146.06;5045315;28;20486;-72
2024/04/02 05:20:42;;;;;;;2.50;1.13;;;8.80;81.10;;;8.13;79.28;97141.34;5040804;28;20918;-71
2024/04/02 05:23:11;;;;;;;0.80;0.77;;;8.90;81.10;;;8.36;79.20;97154.16;5031918;28;20483;-70
2024/04/02 05:25:38;;;;;;;2.07;1.10;;;8.90;81.00;;;8.43;78.18;97154.94;5037515;28;20980;-72
2024/04/02 05:28:07;;;;;;;3.70;1.30;;;9.00;80.70;;;8.42;77.70;97163.22;5029359;28;20492;-69
2024/04/02 05:30:34;;;;;;;1.93;1.00;;;9.10;80.40;;;8.52;77.82;97162.72;5036959;28;21053;-71
2024/04/02 05:33:02;;;;;;;4.10;1.00;;;9.10;80.60;;;8.43;78.07;97171.06;5035329;28;20473;-71
2024/04/02 05:35:29;;;;;;;5.63;1.40;;;9.20;80.20;;;8.34;78.67;97167.00;5036521;28;20924;-71
2024/04/02 05:37:56;;;;;;;1.23;0.80;;;9.20;80.10;;;8.17;78.91;97166.75;5039061;28;20474;-70
2024/04/02 05:40:24;;;;;;;2.10;1.00;;;9.10;80.00;;;8.28;78.71;97171.41;5044734;28;20518;-70
2024/04/02 05:42:52;;;;;;;3.33;1.17;;;9.10;80.10;;;8.22;78.80;97170.41;5037099;28;20492;-71
2024/04/02 05:45:19;;;;;;;0.90;0.80;;;9.10;80.00;;;8.44;78.58;97177.28;5037387;28;20479;-69
2024/04/02 05:47:46;;;;;;;4.87;1.50;;;9.20;80.20;;;8.49;78.87;97172.88;5039061;28;20489;-72
2024/04/02 05:50:15;;;;;;;1.47;1.37;;;9.30;80.10;;;8.42;78.28;97166.75;5037646;28;20493;-70
2024/04/02 05:52:42;;;;;;;4.90;1.30;;;9.30;80.00;;;8.41;78.02;97172.34;5045091;28;20522;-72
2024/04/02 05:55:08;;;;;;;1.40;1.10;;;9.30;79.90;;;8.39;78.87;97174.44;5054542;28;20841;-70
2024/04/02 05:57:35;;;;;;;3.33;1.10;;;9.20;79.70;;;8.63;79.11;97178.16;5038783;28;20551;-69
2024/04/02 06:00:05;;;;;;;2.07;1.47;;;9.40;80.50;;;8.81;78.17;97171.13;5039782;28;20468;-71
2024/04/02 06:02:33;;;;;;;1.30;0.80;;;9.50;80.10;;;8.67;76.74;97181.22;5039006;28;20981;-68
2024/04/02 06:04:59;;;;;;;2.33;1.03;;;9.50;79.40;;;8.99;75.43;97171.09;5033315;28;20485;-70
2024/04/02 06:07:26;;;;;;;2.60;1.00;;;9.70;79.50;;;9.13;74.85;97185.25;5041914;28;20481;-73
2024/04/02 06:09:52;;;;;;;1.23;1.10;;;9.80;78.50;;;8.90;75.05;97175.97;5042505;28;20485;-68
2024/04/02 06:12:19;;;;;;;1.93;1.20;;;9.70;78.40;;;9.24;73.85;97191.75;5026428;28;20462;-71
2024/04/02 06:14:45;;;;;;;1.20;1.00;;;9.90;78.20;;;9.10;72.99;97190.25;5039482;28;20496;-73
2024/04/02 06:17:14;;;;;;;2.00;1.70;;;9.80;77.50;;;9.15;74.04;97199.31;5042544;28;20555;-70
2024/04/02 06:19:40;;;;;;;1.73;1.30;;;9.80;78.00;;;9.20;73.72;97195.94;5044100;28;20473;-71
2024/04/02 06:22:07;;;;;;;1.97;0.90;;;9.80;78.00;;;9.28;73.94;97187.53;5046173;28;20540;-74
2024/04/02 06:24:34;;;;;;;1.70;1.10;;;9.90;78.00;;;9.59;72.21;97191.06;5042878;28;20472;-70
2024/04/02 06:27:00;;;;;;;1.73;0.80;;;10.20;76.80;;;8.95;71.58;97126.81;5036886;28;20516;-71
2024/04/02 06:29:29;;;;;;;0.97;0.90;;;10.10;76.10;;;9.56;71.04;97199.59;5037343;28;20506;-71
2024/04/02 06:31:56;;;;;;;0.90;0.60;;;10.20;75.80;;;9.41;70.65;97212.69;5039428;28;20468;-71
2024/04/02 06:34:25;;;;;;;3.20;0.87;;;10.20;75.40;;;9.46;71.47;97220.91;5039898;28;20464;-71
2024/04/02 06:36:51;;;;;;;1.83;0.80;;;10.10;75.30;;;9.52;71.14;97214.59;5035361;28;20508;-81
2024/04/02 06:39:18;;;;;;;2.73;0.80;;;10.10;75.30;;;9.45;70.67;97219.25;5040035;28;20571;-69
2024/04/02 06:41:44;;;;;;;0.70;0.57;;;10.10;75.10;;;9.03;72.03;97226.19;5034996;28;20484;-69
2024/04/02 06:44:13;;;;;;;1.97;0.90;;;9.90;76.20;;;8.93;72.63;97215.13;5028540;28;20484;-73
2024/04/02 06:46:39;;;;;;;1.23;0.53;;;9.90;76.70;;;8.88;74.89;97226.56;5022439;28;20475;-77
2024/04/02 06:49:06;;;;;;;1.27;0.60;;;9.80;78.00;;;8.96;75.33;97228.13;5034351;28;20981;-72
2024/04/02 06:51:34;;;;;;;1.43;0.70;;;9.70;77.80;;;9.16;75.02;97233.31;5033036;28;20551;-73
2024/04/02 06:54:01;;;;;;;0.70;0.70;;;9.90;78.10;;;9.18;75.53;97231.19;5036499;28;20482;-73
2024/04/02 06:56:27;;;;;;;1.43;1.00;;;9.90;78.10;;;9.37;74.77;97238.44;5055820;28;20472;-74
2024/04/02 06:58:54;;;;;;;1.27;0.50;;;10.10;76.90;;;9.12;74.09;97233.97;5033592;28;20470;-72
2024/04/02 07:01:21;;;;;;;2.30;0.70;;;10.00;76.30;;;9.20;74.39;97239.06;5052108;28;21069;-73
2024/04/02 07:03:48;;;;;;;1.43;0.57;;;10.10;76.60;;;9.26;74.61;97237.34;5036561;28;20567;-72
2024/04/02 07:06:15;;;;;;;3.50;0.83;;;10.00;76.50;;;9.08;76.75;97238.97;5028953;28;20470;-73
2024/04/02 07:08:46;;;;;;;1.00;0.60;;;9.90;78.40;;;9.28;75.49;97241.44;5043265;28;20484;-72
2024/04/02 07:11:13;;;;;;;2.00;0.60;;;10.00;77.40;;;9.16;75.49;97248.63;5032861;28;20521;-74
2024/04/02 07:13:41;;;;;;;0.73;0.67;;;9.90;78.20;;;9.06;75.01;97249.16;5024646;28;20485;-72
2024/04/02 07:16:07;;;;;;;2.63;0.70;;;9.80;78.10;;;8.86;77.35;97249.38;5033966;28;20465;-73
2024/04/02 07:18:36;;;;;;;1.23;0.60;;;9.70;78.70;;;8.96;77.61;97238.91;5056517;28;20550;-72
2024/04/02 07:21:04;;;;;;;1.10;0.60;;;9.70;79.00;;;9.04;76.45;97241.31;5041261;28;20479;-74
2024/04/02 07:23:32;;;;;;;0.60;0.60;;;9.70;78.70;;;9.20;75.72;97241.75;5037806;28;20504;-73
2024/04/02 07:26:00;;;;;;;1.07;0.93;;;9.80;78.70;;;9.41;75.68;97250.41;5042347;28;20527;-73
2024/04/02 07:28:27;;;;;;;0.70;0.57;;;9.90;79.10;;;9.71;74.92;97249.63;5043638;28;20480;-73
2024/04/02 07:30:54;;;;;;;1.27;0.60;;;10.30;77.70;;;9.96;73.88;97240.56;5034619;28;20485;-75
2024/04/02 07:33:21;;;;;;;0.80;0.60;;;10.50;77.50;;;9.73;73.79;97258.31;5037978;28;21012;-68
2024/04/02 07:35:48;;;;;;;4.20;0.90;;;10.50;77.20;;;9.51;75.74;97261.50;5034394;28;20527;-74
2024/04/02 07:38:15;;;;;;;1.87;0.70;;;10.40;77.60;;;9.21;77.01;97240.72;5042649;28;20894;-69
2024/04/02 07:40:43;;;;;;;2.17;0.60;;;10.10;77.90;;;9.36;75.30;97264.56;5042995;28;20970;-70
2024/04/02 07:43:11;;;;;;;1.20;0.67;;;10.10;77.70;;;9.42;76.21;97273.63;5034409;28;21012;-69
2024/04/02 07:45:39;;;;;;;0.60;0.60;;;10.20;78.10;;;9.53;75.01;97274.75;5040540;28;20473;-70
2024/04/02 07:48:07;;;;;;;1.37;0.70;;;10.20;77.40;;;9.92;74.96;97276.06;5040492;28;20500;-71
2024/04/02 07:50:35;;;;;;;1.20;0.93;;;10.60;77.90;;;10.00;72.46;97271.41;5037915;28;20997;-71
2024/04/02 07:53:02;;;;;;;1.10;0.70;;;10.70;76.60;;;10.15;72.91;97288.00;5041599;28;20560;-71
2024/04/02 07:55:28;;;;;;;1.10;1.00;;;10.80;77.00;;;9.96;74.37;97279.16;5034832;28;20546;-70
2024/04/02 07:57:56;;;;;;;1.17;0.70;;;10.80;77.00;;;9.67;75.75;97294.28;5036627;28;20486;-70
2024/04/02 08:00:23;;;;;;;1.27;0.93;;;10.50;77.20;;;9.68;75.48;97290.53;5038826;28;21042;-70
2024/04/02 08:02:50;;;;;;;0.70;0.70;;;10.50;77.40;;;9.82;74.96;97297.41;5037535;28;20488;-69
2024/04/02 08:05:17;;;;;;;2.53;0.50;;;10.60;77.40;;;9.67;74.31;97294.28;5034400;28;20881;-69
2024/04/02 08:07:46;;;;;;;0.87;0.50;;;10.60;76.70;;;9.67;74.52;97294.28;5042119;28;20531;-71
2024/04/02 08:10:16;;;;;;;1.17;0.60;;;10.50;76.90;;;9.55;74.48;97280.72;5036705;28;20494;-69
2024/04/02 08:12:43;;;;;;;0.70;0.70;;;10.50;76.90;;;9.73;74.17;97290.66;5040541;28;22382;-70
2024/04/02 08:15:09;;;;;;;0.87;0.70;;;10.50;76.70;;;9.88;72.69;97282.19;5039480;28;20476;-70
2024/04/02 08:17:38;;;;;;;0.60;0.40;;;10.60;76.40;;;10.20;71.82;97279.22;5040548;28;20490;-71
2024/04/02 08:20:06;;;;;;;2.40;0.80;;;10.80;76.40;;;10.40;70.41;97295.13;5035021;28;20478;-68
2024/04/02 08:22:34;;;;;;;0.90;0.80;;;11.00;75.40;;;10.71;68.87;97301.28;5031902;28;20478;-70
2024/04/02 08:25:02;;;;;;;1.07;0.57;;;11.30;75.00;;;10.44;68.27;97290.94;5035584;28;20543;-70
2024/04/02 08:27:29;;;;;;;3.80;0.60;;;11.20;74.00;;;10.51;68.14;97296.22;5024539;28;20579;-69
2024/04/02 08:29:58;;;;;;;0.90;0.60;;;11.20;73.70;;;10.59;66.65;97308.56;5036594;28;20481;-70
2024/04/02 08:32:28;;;;;;;1.23;0.63;;;11.40;73.00;;;10.95;66.69;97322.91;5034367;28;21440;-70
2024/04/02 08:34:55;;;;;;;0.80;0.53;;;11.60;73.10;;;10.55;68.03;97318.19;5036075;28;20477;-69
2024/04/02 08:37:23;;;;;;;0.93;0.47;;;11.50;73.60;;;10.24;69.91;97290.41;5041041;28;20477;-80
2024/04/02 08:39:49;;;;;;;2.20;0.70;;;11.40;74.20;;;10.32;72.45;97331.38;5037600;28;20469;-80
2024/04/02 08:42:20;;;;;;;1.70;0.70;;;11.20;75.50;;;10.61;72.51;97338.88;5045674;28;20837;-79
2024/04/02 08:44:49;;;;;;;0.50;0.50;;;11.30;76.20;;;9.71;74.52;97281.97;5031254;28;20466;-81
2024/04/02 08:47:17;;;;;;;2.53;0.80;;;11.10;76.90;;;9.88;76.91;97347.75;5038653;28;20487;-84
2024/04/02 08:49:45;;;;;;;1.37;0.47;;;10.70;77.40;;;9.74;77.66;97366.00;5044413;28;20480;-79
2024/04/02 08:52:14;;;;;;;1.80;0.80;;;10.60;78.20;;;9.34;79.24;97369.97;5043866;28;20472;-67
2024/04/02 08:54:40;;;;;;;1.07;0.63;;;10.40;78.80;;;9.24;81.43;97366.94;5039641;28;20539;-66
2024/04/02 08:57:08;;;;;;;1.10;1.00;;;10.20;79.50;;;9.15;83.07;97374.50;5041677;28;20480;-67
2024/04/02 08:59:39;;;;;;;1.90;0.53;;;10.10;80.50;;;8.35;84.74;97322.91;5019965;28;21034;-66
2024/04/02 09:02:09;;;;;;;0.80;0.70;;;9.80;82.20;;;8.72;87.11;97378.81;5039403;28;20486;-65
2024/04/02 09:04:35;;;;;;;0.70;0.60;;;9.70;84.10;;;9.07;87.50;97378.28;5039861;28;20481;-66
2024/04/02 09:07:03;;;;;;;1.27;0.67;;;9.90;85.70;;;9.29;86.65;97388.66;5033154;28;20499;-66
2024/04/02 09:09:30;;;;;;;1.00;0.70;;;10.10;83.90;;;9.20;83.40;97390.81;5035736;28;20464;-67
2024/04/02 09:11:58;;;;;;;0.80;0.80;;;10.10;82.00;;;9.31;82.55;97383.84;5037364;28;20470;-67
2024/04/02 09:14:24;;;;;;;1.43;0.60;;;10.20;81.50;;;9.40;81.49;97388.97;5037803;28;20485;-67
2024/04/02 09:16:54;;;;;;;0.70;0.50;;;10.30;80.60;;;9.33;81.70;97395.28;5039975;28;20480;-67
2024/04/02 09:19:23;;;;;;;0.40;0.40;;;10.30;80.70;;;9.09;80.56;97396.91;5034157;28;20478;-85
2024/04/02 09:21:51;;;;;;;0.80;0.43;;;10.10;80.20;;;9.04;81.29;97392.22;5040994;28;20482;-65
2024/04/02 09:24:18;;;;;;;0.60;0.50;;;10.00;80.10;;;9.04;78.75;97394.06;5042154;28;20543;-67
2024/04/02 09:26:48;;;;;;;1.73;0.57;;;10.00;79.60;;;8.76;79.31;97389.94;5037353;28;20549;-66
2024/04/02 09:29:14;;;;;;;2.00;0.53;;;9.80;80.20;;;8.95;79.43;97398.91;5038165;28;20471;-66
2024/04/02 09:31:42;;;;;;;0.70;0.60;;;9.80;80.40;;;9.23;79.54;97402.19;5043897;28;20522;-66
2024/04/02 09:34:09;;;;;;;0.60;0.40;;;10.00;79.80;;;9.16;77.25;97400.41;5038259;28;20488;-65
2024/04/02 09:36:43;;;;;;;1.10;0.40;;;10.10;78.60;;;9.33;77.48;97402.53;5057406;28;20529;-67
2024/04/02 09:39:12;;;;;;;2.10;0.80;;;10.20;78.60;;;9.71;77.23;97408.75;5040620;28;20549;-65
2024/04/02 09:41:42;;;;;;;2.93;0.77;;;10.40;78.80;;;10.74;74.88;97406.19;5044559;28;20491;-65
2024/04/02 09:44:12;;;;;;;2.13;0.50;;;11.20;78.90;;;11.48;71.49;97396.84;5048931;28;20471;-65
2024/04/02 09:46:41;;;;;;;1.30;0.73;;;12.00;77.40;;;11.56;69.07;97403.78;5046056;28;20497;-67
2024/04/02 09:49:10;;;;;;;2.53;1.23;;;12.40;75.80;;;11.47;67.81;97400.59;5043261;28;20553;-67
2024/04/02 09:51:39;;;;;;;4.70;1.10;;;12.40;74.00;;;11.65;67.31;97395.31;5035758;28;20482;-67
2024/04/02 09:54:06;;;;;;;2.30;1.10;;;12.50;74.10;;;11.26;68.00;97403.91;5031616;28;20932;-67
2024/04/02 09:56:35;;;;;;;1.80;0.70;;;12.30;74.00;;;11.25;67.95;97397.66;5028470;28;20567;-67
2024/04/02 09:59:05;;;;;;;2.00;1.10;;;12.20;73.50;;;10.97;67.23;97401.88;5029863;28;20486;-66
2024/04/02 10:01:36;;;;;;;9.13;1.20;;;12.00;73.10;;;10.81;67.89;97406.09;5040674;28;20480;-66
2024/04/02 10:04:06;;;;;;;1.60;0.90;;;11.70;73.00;;;10.74;65.57;97398.09;5030698;28;20468;-67
2024/04/02 10:06:36;;;;;;;2.50;0.90;;;11.70;71.60;;;11.27;64.50;97400.97;5029444;28;20471;-66
2024/04/02 10:09:06;;;;;;;2.83;0.97;;;12.00;71.40;;;11.15;63.69;97398.25;5042063;28;20547;-65
2024/04/02 10:11:41;;;;;;;2.77;1.07;;;12.10;70.50;;;11.07;63.61;97397.78;5035945;28;20496;-66
2024/04/02 10:14:09;;;;;;;2.70;0.80;;;12.00;70.10;;;11.32;63.41;97398.38;5030288;28;20543;-66
2024/04/02 10:16:41;;;;;;;4.33;0.97;;;12.10;70.00;;;11.22;61.04;97419.78;5039331;28;20497;-66
2024/04/02 10:19:12;;;;;;;2.57;0.70;;;12.10;68.30;;;10.46;60.26;97350.94;5036556;28;20487;-65
2024/04/02 10:21:40;;;;;;;3.00;1.07;;;11.90;67.10;;;10.31;61.29;97409.91;5035218;28;20490;-65
2024/04/02 10:24:08;;;;;;;1.20;0.80;;;11.30;66.60;;;10.33;62.05;97424.84;5035982;28;20493;-65
2024/04/02 10:26:39;;;;;;;5.53;1.43;;;11.20;67.50;;;10.38;62.37;97410.63;5031448;28;20513;-67
2024/04/02 10:29:08;;;;;;;4.57;1.20;;;11.20;68.00;;;10.96;62.15;97394.00;5040395;28;20582;-66
2024/04/02 10:31:39;;;;;;;2.60;0.80;;;11.60;68.20;;;11.26;59.82;97393.91;5034515;28;20503;-67